Latest Coastal Weather Observations for Frankston (Ballam Park)

IDV60701

Issued at 7:22 pm EDT Thursday 21 October 2021 (issued every 10 minutes, with the page automatically refreshed every 10 minutes)

About coastal observations | Map of coastal stations | Coastal observations for VIC | Marine services | Other Formats
Station Details ID: 086388 Name: FRANKSTON (BALLAM PARK) Lat: -38.15 Lon: 145.16 Height: 58.47 m
Data from the previous 72 hours. | See also: Recent months at Frankston (Ballam Park)
Date/Time
EDT
Wind Sea
Height
m
Swell Vis
km
Cloud Weather Temp
°C
Press
MSL
hPa
Rain since
9am
mm
Dir  Spd
kts
Gust
kts
Height
m
Period
s
Dir
21/07:00pm CALM 0 0 - - - - - - - 21.7 1013.1 0.0
21/06:30pm WNW 1 3 - - - - - - - 22.3 1013.0 0.0
21/06:00pm WNW 2 6 - - - - - - - 22.1 1012.8 0.0
21/05:30pm WNW 4 7 - - - - - - - 23.4 1012.7 0.0
21/05:00pm NW 5 8 - - - - - - - 22.6 1012.6 0.0
21/04:30pm W 5 8 - - - - - - - 24.1 1012.6 0.0
21/04:00pm NNW 4 8 - - - - - - - 24.4 1012.6 0.0
21/03:30pm NNE 5 10 - - - - - - - 24.4 1012.8 0.0
21/03:00pm NNE 6 10 - - - - - - - 24.1 1012.9 0.0
21/02:30pm N 5 10 - - - - - - - 23.9 1013.4 0.0
21/02:00pm NNE 5 9 - - - - - - - 24.0 1013.6 0.0
21/01:30pm NNE 4 9 - - - - - - - 23.2 1013.9 0.0
21/01:00pm NNW 5 11 - - - - - - - 23.5 1013.9 0.0
21/12:30pm NNW 7 11 - - - - - - - 22.5 1014.1 0.0
21/12:00pm N 7 10 - - - - - - - 21.4 1014.4 0.0
21/11:30am NNE 4 8 - - - - - - - 19.9 1014.7 0.0
21/11:00am NNE 3 6 - - - - - - - 19.8 1015.1 0.0
21/10:30am ENE 1 3 - - - - - - - 18.3 1015.2 0.0
21/10:00am E 2 5 - - - - - - - 17.3 1015.3 0.0
21/09:30am ESE 3 5 - - - - - - - 16.1 1015.2 0.0
21/09:00am ESE 3 6 - - - - - - - 15.2 1015.4 0.0
21/08:30am ESE 4 6 - - - - - - - 14.1 1015.3 0.0
21/08:00am ESE 4 5 - - - - - - - 13.3 1015.2 0.0
21/07:30am ESE 4 6 - - - - - - - 13.0 1015.0 0.0
21/07:00am ESE 4 7 - - - - - - - 13.1 1014.9 0.0
21/06:30am ESE 4 5 - - - - - - - 12.9 1014.5 0.0
21/06:00am ESE 4 5 - - - - - - - 12.8 1014.4 0.0
21/05:30am ESE 4 7 - - - - - - - 12.7 1014.4 0.0
21/05:00am ESE 5 9 - - - - - - - 12.7 1014.2 0.0
21/04:30am ESE 5 9 - - - - - - - 12.8 1013.9 0.0
21/04:00am ESE 5 8 - - - - - - - 13.0 1014.0 0.0
21/03:30am E 5 9 - - - - - - - 13.1 1014.1 0.0
21/03:00am E 5 8 - - - - - - - 13.2 1014.1 0.0
21/02:30am E 6 13 - - - - - - - 13.2 1014.2 0.0
21/02:00am E 5 10 - - - - - - - 13.3 1014.8 0.0
21/01:30am E 6 11 - - - - - - - 13.4 1015.1 0.0
21/01:00am E 5 10 - - - - - - - 13.6 1015.6 0.0
21/12:30am E 6 10 - - - - - - - 13.8 1016.0 0.0
21/12:00am E 6 11 - - - - - - - 13.9 1016.0 0.0
 
Date/Time
EDT
Wind Sea
Height
m
Swell Vis
km
Cloud Weather Temp
°C
Press
MSL
hPa
Rain since
9am
mm
Dir  Spd
kts
Gust
kts
Height
m
Period
s
Dir
20/11:30pm E 6 11 - - - - - - - 13.8 1016.1 0.0
20/11:00pm E 6 14 - - - - - - - 13.9 1016.3 0.0
20/10:30pm ESE 7 13 - - - - - - - 14.1 1016.7 0.0
20/10:00pm ESE 9 14 - - - - - - - 14.2 1016.9 0.0
20/09:30pm ESE 7 16 - - - - - - - 14.5 1016.9 0.0
20/09:00pm ESE 8 13 - - - - - - - 14.9 1016.7 0.0
20/08:30pm ESE 7 15 - - - - - - - 15.3 1016.5 0.0
20/08:00pm ESE 7 15 - - - - - - - 15.8 1016.5 0.0
20/07:30pm ESE 9 15 - - - - - - - 16.7 1016.3 0.0
20/07:00pm E 7 14 - - - - - - - 17.8 1016.2 0.0
20/06:30pm ESE 7 15 - - - - - - - 18.8 1016.1 0.0
20/06:00pm E 7 13 - - - - - - - 19.7 1015.9 0.0
20/05:30pm E 8 15 - - - - - - - 20.4 1015.9 0.0
20/05:00pm ESE 7 13 - - - - - - - 21.1 1016.0 0.0
20/04:30pm E 8 15 - - - - - - - 21.3 1016.2 0.0
20/04:00pm E 6 13 - - - - - - - 21.4 1016.6 0.0
20/03:30pm ESE 7 15 - - - - - - - 21.5 1016.9 0.0
20/03:00pm E 5 10 - - - - - - - 21.5 1017.4 0.0
20/02:30pm ESE 4 8 - - - - - - - 21.2 1018.1 0.0
20/02:00pm E 6 11 - - - - - - - 20.6 1018.4 0.0
20/01:30pm ESE 6 13 - - - - - - - 20.2 1018.7 0.0
20/01:00pm E 6 12 - - - - - - - 19.9 1018.9 0.0
20/12:30pm E 9 15 - - - - - - - 19.2 1019.4 0.0
20/12:00pm E 7 13 - - - - - - - 18.6 1019.6 0.0
20/11:30am E 8 14 - - - - - - - 18.1 1020.4 0.0
20/11:00am E 7 13 - - - - - - - 17.8 1020.6 0.0
20/10:30am E 6 11 - - - - - - - 17.1 1021.1 0.0
20/10:00am E 8 14 - - - - - - - 16.2 1021.3 0.0
20/09:30am E 7 14 - - - - - - - 15.2 1021.3 0.0
20/09:00am E 9 18 - - - - - - - 14.2 1021.8 2.4
20/08:30am E 8 14 - - - - - - - 13.4 1022.0 2.4
20/08:00am E 7 12 - - - - - - - 12.2 1022.1 2.4
20/07:30am ESE 6 13 - - - - - - - 11.6 1022.4 2.4
20/07:00am ESE 6 13 - - - - - - - 11.1 1022.7 2.4
20/06:30am ESE 6 11 - - - - - - - 10.7 1022.6 2.4
20/06:00am ESE 5 9 - - - - - - - 10.1 1022.0 2.4
20/05:30am ESE 6 11 - - - - - - - 10.0 1021.8 2.4
20/05:00am ESE 5 11 - - - - - - - 10.0 1021.5 2.4
20/04:30am ESE 7 12 - - - - - - - 10.1 1021.6 2.4
20/04:00am ESE 7 12 - - - - - - - 10.0 1021.8 2.4
20/03:30am ESE 5 10 - - - - - - - 10.1 1022.4 2.4
20/03:00am ESE 4 7 - - - - - - - 10.2 1022.7 2.4
20/02:30am ESE 7 13 - - - - - - - 10.5 1022.6 2.4
20/02:00am ESE 7 15 - - - - - - - 10.6 1022.9 2.4
20/01:30am ESE 7 13 - - - - - - - 10.8 1023.1 2.4
20/01:00am ESE 7 13 - - - - - - - 11.0 1023.7 2.4
20/12:30am ESE 6 11 - - - - - - - 10.8 1023.6 2.4
20/12:00am SE 5 8 - - - - - - - 10.9 1024.3 2.4
 
Date/Time
EDT
Wind Sea
Height
m
Swell Vis
km
Cloud Weather Temp
°C
Press
MSL
hPa
Rain since
9am
mm
Dir  Spd
kts
Gust
kts
Height
m
Period
s
Dir
19/11:30pm SE 4 9 - - - - - - - 11.2 1024.6 2.4
19/11:00pm SE 5 7 - - - - - - - 11.6 1024.5 2.4
19/10:30pm SSE 3 6 - - - - - - - 11.5 1024.9 2.4
19/10:00pm SE 5 8 - - - - - - - 11.7 1024.2 2.4
19/09:30pm ESE 5 10 - - - - - - - 12.0 1024.1 2.2
19/09:00pm SE 6 13 - - - - - - - 12.5 1023.9 2.2
19/08:30pm SE 6 12 - - - - - - - 12.5 1023.4 2.2
19/08:00pm SSE 5 8 - - - - - - - 13.1 1023.2 2.2
19/07:30pm SE 6 11 - - - - - - - 13.9 1022.5 2.2
19/07:00pm SSE 5 9 - - - - - - - 14.6 1022.3 2.2
19/06:30pm SE 6 13 - - - - - - - 15.2 1021.8 2.2
19/06:00pm SSE 6 11 - - - - - - Recent precip. 14.7 1021.8 2.2
19/05:30pm SSE 7 11 - - - - - - - 14.2 1022.3 2.2
19/05:00pm S 8 15 - - - - - - - 14.2 1022.2 2.0
19/04:30pm S 8 14 - - - - - - - 15.0 1022.0 1.8
19/04:00pm S 7 12 - - - - - - - 14.7 1021.9 1.8
19/03:30pm SSE 6 13 - - - - - - - 13.2 1022.0 1.8
19/03:00pm SSE 8 13 - - - - - - - 14.9 1022.0 1.6
19/02:30pm S 8 15 - - - - - - - 15.4 1022.1 1.6
19/02:00pm SSE 7 12 - - - - - - - 14.7 1022.2 1.6
19/01:30pm SSE 8 14 - - - - - - - 15.1 1022.6 1.6
19/01:00pm SSE 6 11 - - - - - - - 13.6 1022.4 1.6
19/12:30pm SE 3 7 - - - - - - - 14.2 1022.5 1.6
19/12:00pm ESE 5 10 - - - - - - Rain 12.6 1022.6 1.2
19/11:30am ESE 3 5 - - - - - - - 12.8 1022.6 0.2
19/11:00am SE 5 7 - - - - - - - 14.5 1022.4 0.0
19/10:30am SSE 5 8 - - - - - - - 14.0 1022.3 0.0
19/10:00am S 4 6 - - - - - - - 13.3 1022.3 0.0
19/09:30am S 2 5 - - - - - - - 12.4 1022.2 0.0
19/09:00am SSW 3 6 - - - - - - - 12.1 1021.9 0.0
19/08:30am SSW 3 5 - - - - - - - 11.6 1021.7 0.0
19/08:00am SSW 3 5 - - - - - - - 11.5 1021.2 0.0
19/07:30am S 2 5 - - - - - - - 10.1 1020.5 0.0
19/07:00am S 2 5 - - - - - - - 9.2 1020.2 0.0
19/06:30am SW 1 2 - - - - - - - 8.9 1019.7 0.0
19/06:00am SSW 2 3 - - - - - - - 9.1 1019.4 0.0
19/05:30am S 2 3 - - - - - - - 9.0 1019.1 0.0
19/05:00am S 1 2 - - - - - - - 8.3 1018.8 0.0
19/04:30am CALM 0 1 - - - - - - - 8.9 1018.7 0.0
19/04:00am SSW 2 4 - - - - - - - 9.8 1018.7 0.0
19/03:30am SW 2 5 - - - - - - - 9.5 1018.7 0.0
19/03:00am SSW 1 3 - - - - - - - 9.2 1018.6 0.0
19/02:30am WSW 2 5 - - - - - - - 9.3 1018.6 0.0
19/02:00am CALM 0 3 - - - - - - - 7.8 1018.6 0.0
19/01:30am CALM 0 2 - - - - - - - 7.9 1018.7 0.0
19/01:00am CALM 0 2 - - - - - - - 8.0 1018.7 0.0
19/12:30am CALM 0 0 - - - - - - - 8.3 1018.6 0.0
19/12:00am CALM 0 0 - - - - - - - 8.2 1018.4 0.0
 
Date/Time
EDT
Wind Sea
Height
m
Swell Vis
km
Cloud Weather Temp
°C
Press
MSL
hPa
Rain since
9am
mm
Dir  Spd
kts
Gust
kts
Height
m
Period
s
Dir
18/11:30pm CALM 0 0 - - - - - - - 8.6 1018.3 0.0
18/11:00pm CALM 0 1 - - - - - - - 9.1 1018.2 0.0
18/10:30pm SW 1 3 - - - - - - - 9.9 1017.9 0.0
18/10:00pm SSW 2 5 - - - - - - - 10.6 1017.7 0.0
18/09:30pm SSW 2 5 - - - - - - - 11.3 1017.6 0.0
18/09:00pm SSW 3 8 - - - - - - - 11.7 1017.1 0.0
18/08:30pm SSW 2 4 - - - - - - - 11.6 1016.7 0.0
18/08:00pm SSW 4 6 - - - - - - - 11.8 1016.1 0.0
18/07:30pm SSW 4 10 - - - - - - - 12.0 1015.8 0.0

Other formats

Comma delimited format used in spreadsheet applications
http://www.bom.gov.au/fwo/IDV60701/IDV60701.94876.axf

JavaScript Object Notation format (JSON) in row-major order
http://www.bom.gov.au/fwo/IDV60701/IDV60701.94876.json

Data quality

Most of these data are generated automatically and are frequently updated. Quality checks on data are not normally performed. It is possible for incorrect values to appear. Refer to information at About Latest Weather Observations and please check the disclaimer before using these data.